createdAt,value
2017-11-27T00:00:24.296Z,1011.4
2017-11-27T00:01:25.900Z,1011.4
2017-11-27T00:02:27.501Z,1011.3
2017-11-27T00:03:29.108Z,1011.4
2017-11-27T00:04:30.709Z,1011.3
2017-11-27T00:05:32.315Z,1011.3
2017-11-27T00:06:33.916Z,1011.2
2017-11-27T00:07:35.525Z,1011.2
2017-11-27T00:08:37.209Z,1011.1
2017-11-27T00:09:38.808Z,1011.2
2017-11-27T00:10:40.420Z,1011.2
2017-11-27T00:11:42.023Z,1011.2
2017-11-27T00:12:43.632Z,1011.2
2017-11-27T00:13:45.222Z,1011.2
2017-11-27T00:14:46.831Z,1011.2
2017-11-27T00:15:48.431Z,1011.3
2017-11-27T00:16:50.039Z,1011.2
2017-11-27T00:17:51.644Z,1011.3
2017-11-27T00:18:53.251Z,1011.3
2017-11-27T00:19:54.855Z,1011.3
2017-11-27T00:20:56.457Z,1011.3
2017-11-27T00:21:58.056Z,1011.4
2017-11-27T00:22:59.665Z,1011.4
2017-11-27T00:24:01.264Z,1011.4
2017-11-27T00:25:02.871Z,1011.3
2017-11-27T00:26:04.491Z,1011.4
2017-11-27T00:27:06.082Z,1011.3
2017-11-27T00:28:07.684Z,1011.3
2017-11-27T00:29:09.289Z,1011.3
2017-11-27T00:30:10.890Z,1011.3
2017-11-27T00:31:12.488Z,1011.4
2017-11-27T00:32:14.099Z,1011.3
2017-11-27T00:33:15.699Z,1011.3
2017-11-27T00:34:17.304Z,1011.3
2017-11-27T00:35:18.903Z,1011.3
2017-11-27T00:36:20.509Z,1011.2
2017-11-27T00:37:22.111Z,1011.2
2017-11-27T00:38:23.720Z,1011.2
2017-11-27T00:39:25.319Z,1011.2
2017-11-27T00:40:26.926Z,1011.2
2017-11-27T00:41:28.523Z,1011.2
2017-11-27T00:42:30.125Z,1011.2
2017-11-27T00:43:31.730Z,1011.1
2017-11-27T00:44:33.332Z,1011.1
2017-11-27T00:45:34.933Z,1011.0
2017-11-27T00:46:36.544Z,1011.1
2017-11-27T00:47:38.150Z,1011.0
2017-11-27T00:48:39.746Z,1011.0
2017-11-27T00:49:41.352Z,1011.1
2017-11-27T00:50:42.953Z,1011.1
2017-11-27T00:51:44.561Z,1011.1
2017-11-27T00:52:46.170Z,1011.1
2017-11-27T00:53:47.773Z,1011.1
2017-11-27T00:54:49.375Z,1011.1
2017-11-27T00:55:50.980Z,1011.1
2017-11-27T00:56:52.580Z,1011.1
2017-11-27T00:57:54.181Z,1011.2
2017-11-27T00:58:55.784Z,1011.2
2017-11-27T00:59:57.388Z,1011.2
2017-11-27T01:00:58.990Z,1011.3
2017-11-27T01:02:00.596Z,1011.3
2017-11-27T01:03:02.204Z,1011.3
2017-11-27T01:04:03.808Z,1011.2
2017-11-27T01:05:05.412Z,1011.2
2017-11-27T01:06:07.017Z,1011.3
2017-11-27T01:07:08.615Z,1011.2
2017-11-27T01:08:10.218Z,1011.3
2017-11-27T01:09:11.826Z,1011.2
2017-11-27T01:10:13.436Z,1011.2
2017-11-27T01:11:15.028Z,1011.1
2017-11-27T01:12:16.630Z,1011.1
2017-11-27T01:13:18.235Z,1011.1
2017-11-27T01:14:19.843Z,1011.1
2017-11-27T01:15:21.454Z,1011.1
2017-11-27T01:16:23.050Z,1011.1
2017-11-27T01:17:24.660Z,1011.1
2017-11-27T01:18:26.257Z,1011.0
2017-11-27T01:19:27.856Z,1011.1
2017-11-27T01:20:29.460Z,1011.1
2017-11-27T01:21:31.062Z,1011.1
2017-11-27T01:22:32.666Z,1011.0
2017-11-27T01:23:34.276Z,1011.1
2017-11-27T01:24:35.882Z,1011.1
2017-11-27T01:25:37.493Z,1011.1
2017-11-27T01:26:39.081Z,1011.1
2017-11-27T01:27:40.684Z,1011.1
2017-11-27T01:28:42.293Z,1011.2
2017-11-27T01:29:43.893Z,1011.2
2017-11-27T01:30:45.509Z,1011.1
2017-11-27T01:31:47.102Z,1011.1
2017-11-27T01:32:48.708Z,1011.1
2017-11-27T01:33:50.310Z,1011.1
2017-11-27T01:34:51.916Z,1011.1
2017-11-27T01:35:53.514Z,1011.1
2017-11-27T01:36:55.115Z,1011.1
2017-11-27T01:37:56.732Z,1011.1
2017-11-27T01:38:58.327Z,1011.1
2017-11-27T01:39:59.926Z,1011.1
2017-11-27T01:41:01.528Z,1011.1
2017-11-27T01:42:03.145Z,1011.1
2017-11-27T01:43:04.740Z,1011.2
2017-11-27T01:44:06.340Z,1011.1
2017-11-27T01:45:07.944Z,1011.1
2017-11-27T01:46:09.548Z,1011.1
2017-11-27T01:47:11.148Z,1011.0
2017-11-27T01:48:12.757Z,1011.1
2017-11-27T01:49:14.352Z,1011.1
2017-11-27T01:50:15.958Z,1011.1
2017-11-27T01:51:17.559Z,1011.0
2017-11-27T01:52:19.169Z,1011.1
2017-11-27T01:53:20.765Z,1011.0
2017-11-27T01:54:22.380Z,1011.0
2017-11-27T01:55:23.975Z,1011.0
2017-11-27T01:56:25.582Z,1011.0
2017-11-27T01:57:27.184Z,1011.0
2017-11-27T01:58:28.791Z,1011.0
2017-11-27T01:59:30.394Z,1010.9
2017-11-27T02:00:31.997Z,1010.9
2017-11-27T02:01:33.596Z,1011.0
2017-11-27T02:02:35.203Z,1010.9
2017-11-27T02:03:36.803Z,1010.9
2017-11-27T02:04:38.404Z,1010.9
2017-11-27T02:05:40.016Z,1011.0
2017-11-27T02:06:41.614Z,1010.9
2017-11-27T02:07:43.215Z,1010.8
2017-11-27T02:08:44.819Z,1010.8
2017-11-27T02:09:46.425Z,1010.9
2017-11-27T02:10:48.030Z,1010.9
2017-11-27T02:11:49.648Z,1010.8
2017-11-27T02:12:51.246Z,1010.9
2017-11-27T02:13:52.844Z,1010.8
2017-11-27T02:14:54.452Z,1010.8
2017-11-27T02:15:56.058Z,1010.8
2017-11-27T02:16:57.655Z,1010.9
2017-11-27T02:17:59.257Z,1010.9
2017-11-27T02:19:00.863Z,1010.8
2017-11-27T02:20:02.477Z,1011.0
2017-11-27T02:21:04.084Z,1010.9
2017-11-27T02:22:05.686Z,1010.8
2017-11-27T02:23:07.286Z,1010.9
2017-11-27T02:24:08.899Z,1010.9
2017-11-27T02:25:10.494Z,1010.8
2017-11-27T02:26:12.098Z,1010.8
2017-11-27T02:27:13.701Z,1010.8
2017-11-27T02:28:15.302Z,1010.8
2017-11-27T02:29:16.909Z,1010.9
2017-11-27T02:30:18.514Z,1010.7
2017-11-27T02:31:20.121Z,1010.7
2017-11-27T02:32:21.720Z,1010.7
2017-11-27T02:33:23.325Z,1010.7
2017-11-27T02:34:24.928Z,1010.7
2017-11-27T02:35:26.535Z,1010.7
2017-11-27T02:36:28.139Z,1010.7
2017-11-27T02:37:29.742Z,1010.6
2017-11-27T02:38:31.341Z,1010.6
2017-11-27T02:39:32.952Z,1010.7
2017-11-27T02:40:34.558Z,1010.7
2017-11-27T02:41:36.156Z,1010.7
2017-11-27T02:42:37.758Z,1010.7
2017-11-27T02:43:39.366Z,1010.7
2017-11-27T02:44:40.964Z,1010.7
2017-11-27T02:45:42.570Z,1010.6
2017-11-27T02:46:44.168Z,1010.7
2017-11-27T02:47:45.778Z,1010.6
2017-11-27T02:48:47.383Z,1010.7
2017-11-27T02:49:48.987Z,1010.7
2017-11-27T02:50:50.584Z,1010.6
2017-11-27T02:51:52.187Z,1010.6
2017-11-27T02:52:53.789Z,1010.6
2017-11-27T02:53:55.396Z,1010.6
2017-11-27T02:54:57.000Z,1010.6
2017-11-27T02:55:58.601Z,1010.5
2017-11-27T02:57:00.205Z,1010.6
2017-11-27T02:58:01.812Z,1010.6
2017-11-27T02:59:03.418Z,1010.6
2017-11-27T03:00:05.021Z,1010.6
2017-11-27T03:01:06.618Z,1010.6
2017-11-27T03:02:08.220Z,1010.6
2017-11-27T03:03:09.829Z,1010.5
2017-11-27T03:04:11.436Z,1010.5
2017-11-27T03:05:13.029Z,1010.5
2017-11-27T03:06:14.639Z,1010.5
2017-11-27T03:07:16.243Z,1010.5
2017-11-27T03:08:17.849Z,1010.4
2017-11-27T03:09:19.452Z,1010.4
2017-11-27T03:10:21.050Z,1010.5
2017-11-27T03:11:22.659Z,1010.4
2017-11-27T03:12:24.258Z,1010.4
2017-11-27T03:13:25.865Z,1010.4
2017-11-27T03:14:27.466Z,1010.4
2017-11-27T03:15:29.070Z,1010.4
2017-11-27T03:16:30.671Z,1010.5
2017-11-27T03:17:32.273Z,1010.4
2017-11-27T03:18:33.885Z,1010.4
2017-11-27T03:19:35.489Z,1010.4
2017-11-27T03:20:37.094Z,1010.5
2017-11-27T03:21:38.701Z,1010.4
2017-11-27T03:22:40.300Z,1010.3
2017-11-27T03:23:41.908Z,1010.3
2017-11-27T03:24:43.516Z,1010.3
2017-11-27T03:25:45.111Z,1010.3
2017-11-27T03:26:46.713Z,1010.3
2017-11-27T03:27:48.315Z,1010.3
2017-11-27T03:28:49.921Z,1010.3
2017-11-27T03:29:51.520Z,1010.2
2017-11-27T03:30:53.129Z,1010.2
2017-11-27T03:31:54.728Z,1010.2
2017-11-27T03:32:56.338Z,1010.2
2017-11-27T03:33:57.941Z,1010.2
2017-11-27T03:34:59.538Z,1010.1
2017-11-27T03:36:01.138Z,1010.2
2017-11-27T03:37:02.743Z,1010.1
2017-11-27T03:38:04.343Z,1010.1
2017-11-27T03:39:05.950Z,1010.2
2017-11-27T03:40:07.557Z,1010.1
2017-11-27T03:41:09.154Z,1010.1
2017-11-27T03:42:10.760Z,1010.0
2017-11-27T03:43:12.367Z,1010.0
2017-11-27T03:44:13.962Z,1010.1
2017-11-27T03:45:15.571Z,1010.0
2017-11-27T03:46:17.177Z,1010.0
2017-11-27T03:47:18.786Z,1010.0
2017-11-27T03:48:20.376Z,1010.0
2017-11-27T03:49:21.985Z,1010.0
2017-11-27T03:50:23.586Z,1010.0
2017-11-27T03:51:25.189Z,1010.0
2017-11-27T03:52:26.799Z,1009.9
2017-11-27T03:53:28.396Z,1009.9
2017-11-27T03:54:29.998Z,1010.0
2017-11-27T03:55:31.600Z,1009.9
2017-11-27T03:56:33.207Z,1009.9
2017-11-27T03:57:34.808Z,1009.9
2017-11-27T03:58:36.412Z,1009.8
2017-11-27T03:59:38.019Z,1009.8
2017-11-27T04:00:39.625Z,1009.8
2017-11-27T04:01:41.226Z,1009.8
2017-11-27T04:02:42.825Z,1009.8
2017-11-27T04:03:44.431Z,1009.8
2017-11-27T04:04:46.036Z,1009.8
2017-11-27T04:05:47.637Z,1009.8
2017-11-27T04:06:49.239Z,1009.8
2017-11-27T04:07:50.848Z,1009.7
2017-11-27T04:08:52.447Z,1009.7
2017-11-27T04:09:54.055Z,1009.7
2017-11-27T04:10:55.686Z,1009.7
2017-11-27T04:11:57.265Z,1009.7
2017-11-27T04:12:58.863Z,1009.6
2017-11-27T04:14:00.483Z,1009.7
2017-11-27T04:15:02.106Z,1009.7
2017-11-27T04:16:03.704Z,1009.7
2017-11-27T04:17:05.305Z,1009.6
2017-11-27T04:18:06.903Z,1009.6
2017-11-27T04:19:08.510Z,1009.7
2017-11-27T04:20:10.110Z,1009.6
2017-11-27T04:21:11.717Z,1009.6
2017-11-27T04:22:13.317Z,1009.6
2017-11-27T04:23:14.923Z,1009.5
2017-11-27T04:24:16.528Z,1009.5
2017-11-27T04:25:18.128Z,1009.5
2017-11-27T04:26:19.730Z,1009.5
2017-11-27T04:27:21.339Z,1009.5
2017-11-27T04:28:22.946Z,1009.6
2017-11-27T04:29:24.555Z,1009.5
2017-11-27T04:30:26.152Z,1009.5
2017-11-27T04:31:27.757Z,1009.5
2017-11-27T04:32:29.360Z,1009.5
2017-11-27T04:33:30.962Z,1009.5
2017-11-27T04:34:32.573Z,1009.5
2017-11-27T04:35:34.164Z,1009.4
2017-11-27T04:36:35.774Z,1009.4
2017-11-27T04:37:37.372Z,1009.4
2017-11-27T04:38:38.979Z,1009.4
2017-11-27T04:39:40.578Z,1009.3
2017-11-27T04:40:42.190Z,1009.3
2017-11-27T04:41:43.792Z,1009.4
2017-11-27T04:42:45.401Z,1009.3
2017-11-27T04:43:47.005Z,1009.3
2017-11-27T04:44:48.609Z,1009.4
2017-11-27T04:45:50.207Z,1009.4
2017-11-27T04:46:51.816Z,1009.3
2017-11-27T04:47:53.421Z,1009.3
2017-11-27T04:48:55.022Z,1009.4
2017-11-27T04:49:56.624Z,1009.5
2017-11-27T04:50:59.757Z,1009.3
2017-11-27T04:52:01.369Z,1009.4
2017-11-27T04:53:02.967Z,1009.4
2017-11-27T04:54:04.569Z,1009.3
2017-11-27T04:55:06.169Z,1009.2
2017-11-27T04:56:07.797Z,1009.2
2017-11-27T04:57:09.403Z,1009.2
2017-11-27T04:58:11.004Z,1009.2
2017-11-27T04:59:12.617Z,1009.2
2017-11-27T05:00:14.210Z,1009.1
2017-11-27T05:01:15.816Z,1009.2
2017-11-27T05:02:17.413Z,1009.1
2017-11-27T05:03:19.021Z,1009.0
2017-11-27T05:04:20.620Z,1009.1
2017-11-27T05:05:22.229Z,1009.1
2017-11-27T05:06:23.828Z,1009.0
2017-11-27T05:07:25.438Z,1009.0
2017-11-27T05:08:27.034Z,1009.0
2017-11-27T05:09:28.645Z,1009.0
2017-11-27T05:10:30.253Z,1009.0
2017-11-27T05:11:31.862Z,1008.8
2017-11-27T05:12:33.469Z,1008.9
2017-11-27T05:13:35.068Z,1008.9
2017-11-27T05:14:36.675Z,1008.9
2017-11-27T05:15:38.277Z,1008.9
2017-11-27T05:16:39.886Z,1008.9
2017-11-27T05:17:41.483Z,1008.8
2017-11-27T05:18:43.092Z,1008.8
2017-11-27T05:19:44.694Z,1008.9
2017-11-27T05:20:46.304Z,1008.8
2017-11-27T05:21:47.900Z,1008.9
2017-11-27T05:22:49.510Z,1008.9
2017-11-27T05:23:51.109Z,1008.7
2017-11-27T05:24:52.726Z,1008.7
2017-11-27T05:25:54.317Z,1008.8
2017-11-27T05:26:55.925Z,1008.8
2017-11-27T05:27:57.527Z,1008.8
2017-11-27T05:28:59.601Z,1008.7
2017-11-27T05:30:01.202Z,1008.7
2017-11-27T05:31:02.765Z,1008.8
2017-11-27T05:32:04.373Z,1008.7
2017-11-27T05:33:05.979Z,1008.8
2017-11-27T05:34:07.576Z,1008.8
2017-11-27T05:35:09.181Z,1008.7
2017-11-27T05:36:10.786Z,1008.7
2017-11-27T05:37:12.394Z,1008.6
2017-11-27T05:38:13.992Z,1008.7
2017-11-27T05:39:15.594Z,1008.6
2017-11-27T05:40:17.201Z,1008.6
2017-11-27T05:41:18.808Z,1008.6
2017-11-27T05:42:20.409Z,1008.5
2017-11-27T05:43:22.009Z,1008.6
2017-11-27T05:44:23.613Z,1008.4
2017-11-27T05:45:25.217Z,1008.6
2017-11-27T05:46:26.822Z,1008.5
2017-11-27T05:47:28.434Z,1008.5
2017-11-27T05:48:30.033Z,1008.4
2017-11-27T05:49:31.639Z,1008.4
2017-11-27T05:50:33.260Z,1008.4
2017-11-27T05:51:34.865Z,1008.6
2017-11-27T05:52:36.464Z,1008.5
2017-11-27T05:53:38.065Z,1008.5
2017-11-27T05:54:39.676Z,1008.4
2017-11-27T05:55:41.274Z,1008.4
2017-11-27T05:56:42.884Z,1008.2
2017-11-27T05:57:44.480Z,1008.3
2017-11-27T05:58:46.091Z,1008.2
2017-11-27T05:59:47.690Z,1008.3
2017-11-27T06:00:49.297Z,1008.3
2017-11-27T06:01:50.904Z,1008.2
2017-11-27T06:02:52.506Z,1008.4
2017-11-27T06:03:54.108Z,1008.2
2017-11-27T06:04:55.714Z,1008.2
2017-11-27T06:05:57.312Z,1008.2
2017-11-27T06:06:58.918Z,1008.2
2017-11-27T06:08:00.519Z,1008.2
2017-11-27T06:09:02.124Z,1008.1
2017-11-27T06:10:03.730Z,1008.1
2017-11-27T06:11:05.332Z,1008.1
2017-11-27T06:12:06.954Z,1008.1
2017-11-27T06:13:08.543Z,1008.1
2017-11-27T06:14:10.148Z,1007.9
2017-11-27T06:15:11.748Z,1007.9
2017-11-27T06:16:13.354Z,1007.9
2017-11-27T06:17:14.966Z,1008.0
2017-11-27T06:18:16.564Z,1007.9
2017-11-27T06:19:18.160Z,1008.0
2017-11-27T06:20:19.769Z,1007.8
2017-11-27T06:21:21.371Z,1007.9
2017-11-27T06:22:22.979Z,1007.8
2017-11-27T06:23:24.580Z,1007.7
2017-11-27T06:24:26.187Z,1007.8
2017-11-27T06:25:27.787Z,1007.8
2017-11-27T06:26:29.395Z,1007.7
2017-11-27T06:27:30.996Z,1007.7
2017-11-27T06:28:32.596Z,1007.7
2017-11-27T06:29:34.206Z,1007.7
2017-11-27T06:30:35.811Z,1007.7
2017-11-27T06:31:37.412Z,1007.7
2017-11-27T06:32:39.021Z,1007.7
2017-11-27T06:33:40.637Z,1007.7
2017-11-27T06:34:42.245Z,1007.7
2017-11-27T06:35:43.845Z,1007.7
2017-11-27T06:36:45.447Z,1007.6
2017-11-27T06:37:47.055Z,1007.7
2017-11-27T06:38:48.664Z,1007.6
2017-11-27T06:39:50.263Z,1007.5
2017-11-27T06:40:51.865Z,1007.5
2017-11-27T06:41:53.471Z,1007.5
2017-11-27T06:42:55.073Z,1007.5
2017-11-27T06:43:56.679Z,1007.6
2017-11-27T06:44:58.285Z,1007.6
2017-11-27T06:45:59.893Z,1007.5
2017-11-27T06:47:01.489Z,1007.5
2017-11-27T06:48:03.095Z,1007.5
2017-11-27T06:49:04.703Z,1007.4
2017-11-27T06:50:06.303Z,1007.4
2017-11-27T06:51:07.904Z,1007.5
2017-11-27T06:52:09.515Z,1007.5
2017-11-27T06:53:11.120Z,1007.4
2017-11-27T06:54:12.724Z,1007.4
2017-11-27T06:55:14.347Z,1007.4
2017-11-27T06:56:15.965Z,1007.3
2017-11-27T06:57:17.565Z,1007.4
2017-11-27T06:58:19.170Z,1007.2
2017-11-27T06:59:20.777Z,1007.2
2017-11-27T07:00:22.384Z,1007.3
2017-11-27T07:01:23.985Z,1007.0
2017-11-27T07:02:25.592Z,1007.1
2017-11-27T07:03:27.196Z,1007.2
2017-11-27T07:04:28.800Z,1007.0
2017-11-27T07:05:30.401Z,1007.1
2017-11-27T07:06:32.005Z,1007.1
2017-11-27T07:07:33.620Z,1007.1
2017-11-27T07:08:35.215Z,1007.2
2017-11-27T07:09:36.820Z,1007.1
2017-11-27T07:10:38.423Z,1007.0
2017-11-27T07:11:40.034Z,1007.1
2017-11-27T07:12:41.634Z,1007.1
2017-11-27T07:13:43.248Z,1007.0
2017-11-27T07:14:44.855Z,1006.9
2017-11-27T07:15:46.470Z,1006.9
2017-11-27T07:16:48.075Z,1006.8
2017-11-27T07:17:49.685Z,1006.9
2017-11-27T07:18:51.288Z,1006.8
2017-11-27T07:19:52.904Z,1006.8
2017-11-27T07:20:54.506Z,1006.9
2017-11-27T07:21:56.121Z,1006.9
2017-11-27T07:22:57.736Z,1006.8
2017-11-27T07:23:59.330Z,1006.9
2017-11-27T07:25:00.938Z,1006.8
2017-11-27T07:26:02.542Z,1006.9
2017-11-27T07:27:04.151Z,1006.9
2017-11-27T07:28:05.754Z,1006.8
2017-11-27T07:29:07.368Z,1006.8
2017-11-27T07:30:08.972Z,1006.9
2017-11-27T07:31:10.580Z,1006.8
2017-11-27T07:32:12.193Z,1006.9
2017-11-27T07:33:13.792Z,1006.9
2017-11-27T07:34:15.399Z,1006.8
2017-11-27T07:35:17.003Z,1006.8
2017-11-27T07:36:18.609Z,1006.8
2017-11-27T07:37:20.220Z,1006.7
2017-11-27T07:38:21.825Z,1006.8
2017-11-27T07:39:23.431Z,1006.7
2017-11-27T07:40:25.036Z,1006.8
2017-11-27T07:41:26.641Z,1006.7
2017-11-27T07:42:28.246Z,1006.6
2017-11-27T07:43:29.856Z,1006.7
2017-11-27T07:44:31.471Z,1006.6
2017-11-27T07:45:33.090Z,1006.6
2017-11-27T07:46:34.678Z,1006.5
2017-11-27T07:47:36.286Z,1006.6
2017-11-27T07:48:37.893Z,1006.6
2017-11-27T07:49:39.501Z,1006.6
2017-11-27T07:50:41.106Z,1006.6
2017-11-27T07:51:42.714Z,1006.5
2017-11-27T07:52:44.325Z,1006.4
2017-11-27T07:53:45.926Z,1006.5
2017-11-27T07:54:47.537Z,1006.5
2017-11-27T07:55:49.140Z,1006.5
2017-11-27T07:56:50.746Z,1006.4
2017-11-27T07:57:52.359Z,1006.5
2017-11-27T07:58:53.969Z,1006.3
2017-11-27T07:59:55.570Z,1006.3
2017-11-27T08:00:57.175Z,1006.3
2017-11-27T08:01:58.777Z,1006.3
2017-11-27T08:03:00.385Z,1006.2
2017-11-27T08:04:01.987Z,1006.3
2017-11-27T08:05:03.600Z,1006.4
2017-11-27T08:06:05.211Z,1006.3
2017-11-27T08:07:06.819Z,1006.3
2017-11-27T08:08:08.425Z,1006.1
2017-11-27T08:09:10.031Z,1006.1
2017-11-27T08:10:11.637Z,1006.2
2017-11-27T08:11:13.250Z,1006.0
2017-11-27T08:12:14.860Z,1006.0
2017-11-27T08:13:16.503Z,1006.1
2017-11-27T08:14:18.075Z,1006.1
2017-11-27T08:15:19.692Z,1005.9
2017-11-27T08:16:21.289Z,1006.0
2017-11-27T08:17:22.900Z,1005.9
2017-11-27T08:18:24.505Z,1006.1
2017-11-27T08:19:26.122Z,1006.0
2017-11-27T08:20:27.728Z,1006.1
2017-11-27T08:21:29.334Z,1006.0
2017-11-27T08:22:30.969Z,1005.9
2017-11-27T08:23:32.544Z,1005.8
2017-11-27T08:24:34.160Z,1006.0
2017-11-27T08:25:35.762Z,1005.8
2017-11-27T08:26:37.375Z,1005.6
2017-11-27T08:27:38.981Z,1005.7
2017-11-27T08:28:40.585Z,1005.6
2017-11-27T08:29:42.192Z,1005.7
2017-11-27T08:30:43.803Z,1005.8
2017-11-27T08:31:45.410Z,1005.6
2017-11-27T08:32:47.022Z,1005.5
2017-11-27T08:33:48.629Z,1005.4
2017-11-27T08:34:50.241Z,1005.5
2017-11-27T08:35:51.844Z,1005.4
2017-11-27T08:36:53.451Z,1005.5
2017-11-27T08:37:55.062Z,1005.5
2017-11-27T08:38:56.676Z,1005.3
2017-11-27T08:39:58.279Z,1005.4
2017-11-27T08:40:59.889Z,1005.4
2017-11-27T08:42:01.503Z,1005.3
2017-11-27T08:43:03.109Z,1005.2
2017-11-27T08:44:04.719Z,1005.3
2017-11-27T08:45:06.323Z,1005.2
2017-11-27T08:46:07.936Z,1005.2
2017-11-27T08:47:09.542Z,1005.2
2017-11-27T08:48:11.151Z,1005.2
2017-11-27T08:49:12.766Z,1005.2
2017-11-27T08:50:14.378Z,1005.2
2017-11-27T08:51:15.980Z,1005.2
2017-11-27T08:52:17.615Z,1005.1
2017-11-27T08:53:19.200Z,1005.1
2017-11-27T08:54:20.810Z,1005.0
2017-11-27T08:55:22.416Z,1005.0
2017-11-27T08:56:24.028Z,1005.2
2017-11-27T08:57:25.629Z,1005.1
2017-11-27T08:58:27.235Z,1005.1
2017-11-27T08:59:28.845Z,1005.1
2017-11-27T09:00:30.456Z,1005.0
2017-11-27T09:01:32.074Z,1005.2
2017-11-27T09:02:33.675Z,1005.1
2017-11-27T09:03:35.288Z,1005.1
2017-11-27T09:04:36.904Z,1005.0
2017-11-27T09:05:38.499Z,1004.9
2017-11-27T09:06:40.105Z,1005.1
2017-11-27T09:07:41.720Z,1005.1
2017-11-27T09:08:43.327Z,1004.9
2017-11-27T09:09:44.932Z,1004.9
2017-11-27T09:10:46.546Z,1004.8
2017-11-27T09:11:48.146Z,1004.9
2017-11-27T09:12:49.765Z,1004.9
2017-11-27T09:13:51.370Z,1004.9
2017-11-27T09:14:52.982Z,1004.8
2017-11-27T09:15:54.589Z,1005.0
2017-11-27T09:16:56.197Z,1004.9
2017-11-27T09:17:57.809Z,1004.8
2017-11-27T09:18:59.422Z,1004.5
2017-11-27T09:20:01.027Z,1004.8
2017-11-27T09:21:02.636Z,1004.7
2017-11-27T09:22:04.251Z,1004.7
2017-11-27T09:23:05.865Z,1004.8
2017-11-27T09:24:07.470Z,1004.6
2017-11-27T09:25:09.081Z,1004.6
2017-11-27T09:26:10.691Z,1004.7
2017-11-27T09:27:12.300Z,1004.7
2017-11-27T09:28:13.915Z,1004.6
2017-11-27T09:29:15.519Z,1004.6
2017-11-27T09:30:17.128Z,1004.5
2017-11-27T09:31:18.736Z,1004.8
2017-11-27T09:32:20.355Z,1004.6
2017-11-27T09:33:21.958Z,1004.5
2017-11-27T09:34:23.562Z,1004.5
2017-11-27T09:35:25.168Z,1004.5
2017-11-27T09:36:26.780Z,1004.5
2017-11-27T09:37:28.388Z,1004.5
2017-11-27T09:38:30.003Z,1004.6
2017-11-27T09:39:31.603Z,1004.5
2017-11-27T09:40:33.213Z,1004.7
2017-11-27T09:41:34.822Z,1004.5
2017-11-27T09:42:36.426Z,1004.4
2017-11-27T09:43:38.031Z,1004.5
2017-11-27T09:44:39.646Z,1004.4
2017-11-27T09:45:41.251Z,1004.4
2017-11-27T09:46:42.865Z,1004.3
2017-11-27T09:47:44.469Z,1004.4
2017-11-27T09:48:46.083Z,1004.2
2017-11-27T09:49:47.687Z,1004.1
2017-11-27T09:50:49.300Z,1004.3
2017-11-27T09:51:50.911Z,1004.2
2017-11-27T09:52:52.529Z,1004.2
2017-11-27T09:53:54.134Z,1004.3
2017-11-27T09:54:55.748Z,1004.2
2017-11-27T09:55:57.367Z,1004.1
2017-11-27T09:56:58.977Z,1004.2
2017-11-27T09:58:00.582Z,1004.2
2017-11-27T09:59:02.194Z,1004.1
2017-11-27T10:00:03.808Z,1004.3
2017-11-27T10:01:05.414Z,1004.1
2017-11-27T10:02:07.059Z,1004.1
2017-11-27T10:03:08.627Z,1004.2
2017-11-27T10:04:10.245Z,1004.1
2017-11-27T10:05:11.846Z,1004.3
2017-11-27T10:06:13.462Z,1004.0
2017-11-27T10:07:15.062Z,1004.0
2017-11-27T10:08:16.677Z,1003.9
2017-11-27T10:09:18.283Z,1003.9
2017-11-27T10:10:19.896Z,1003.9
2017-11-27T10:11:21.499Z,1003.9
2017-11-27T10:12:23.113Z,1003.8
2017-11-27T10:13:24.720Z,1004.0
2017-11-27T10:14:26.337Z,1004.1
2017-11-27T10:15:27.944Z,1003.8
2017-11-27T10:16:29.555Z,1003.8
2017-11-27T10:17:31.160Z,1003.7
2017-11-27T10:18:32.772Z,1003.8
2017-11-27T10:19:34.377Z,1003.8
2017-11-27T10:20:35.990Z,1003.9
2017-11-27T10:21:37.601Z,1003.7
2017-11-27T10:22:39.213Z,1003.8
2017-11-27T10:23:40.818Z,1003.6
2017-11-27T10:24:42.429Z,1003.7
2017-11-27T10:25:44.036Z,1003.6
2017-11-27T10:26:45.641Z,1003.5
2017-11-27T10:27:47.254Z,1003.6
2017-11-27T10:28:48.872Z,1003.7
2017-11-27T10:29:50.478Z,1003.6
2017-11-27T10:30:52.083Z,1003.6
2017-11-27T10:31:53.697Z,1003.6
2017-11-27T10:32:55.308Z,1003.5
2017-11-27T10:33:56.913Z,1003.5
2017-11-27T10:34:58.519Z,1003.5
2017-11-27T10:36:00.133Z,1003.5
2017-11-27T10:37:01.746Z,1003.4
2017-11-27T10:38:03.349Z,1003.5
2017-11-27T10:39:04.957Z,1003.4
2017-11-27T10:40:06.570Z,1003.5
2017-11-27T10:41:08.174Z,1003.4
2017-11-27T10:42:09.790Z,1003.4
2017-11-27T10:43:11.402Z,1003.4
2017-11-27T10:44:13.036Z,1003.4
2017-11-27T10:45:14.617Z,1003.3
2017-11-27T10:46:16.229Z,1003.3
2017-11-27T10:47:17.839Z,1003.3
2017-11-27T10:48:19.447Z,1003.2
2017-11-27T10:49:21.058Z,1003.2
2017-11-27T10:50:22.668Z,1003.2
2017-11-27T10:51:24.278Z,1003.1
2017-11-27T10:52:25.891Z,1003.1
2017-11-27T10:53:27.505Z,1003.0
2017-11-27T10:54:29.110Z,1002.9
2017-11-27T10:55:30.720Z,1003.0
2017-11-27T10:56:32.333Z,1002.8
2017-11-27T10:57:33.938Z,1002.8
2017-11-27T10:58:35.553Z,1002.9
2017-11-27T10:59:37.166Z,1002.8
2017-11-27T11:00:38.779Z,1002.8
2017-11-27T11:01:40.377Z,1002.9
2017-11-27T11:02:41.990Z,1002.8
2017-11-27T11:03:43.596Z,1002.7
2017-11-27T11:04:45.213Z,1002.8
2017-11-27T11:05:46.821Z,1002.7
2017-11-27T11:06:48.432Z,1002.6
2017-11-27T11:07:50.041Z,1002.6
2017-11-27T11:08:51.650Z,1002.6
2017-11-27T11:09:53.262Z,1002.5
2017-11-27T11:10:54.869Z,1002.5
2017-11-27T11:11:56.481Z,1002.4
2017-11-27T11:12:58.090Z,1002.5
2017-11-27T11:13:59.700Z,1002.5
2017-11-27T11:15:01.304Z,1002.5
2017-11-27T11:16:02.920Z,1002.4
2017-11-27T11:17:04.525Z,1002.4
2017-11-27T11:18:06.148Z,1002.2
2017-11-27T11:19:07.750Z,1002.2
2017-11-27T11:20:09.364Z,1002.1
2017-11-27T11:21:10.968Z,1002.2
2017-11-27T11:22:12.579Z,1002.1
2017-11-27T11:23:14.192Z,1002.1
2017-11-27T11:24:15.798Z,1001.9
2017-11-27T11:25:17.409Z,1002.0
2017-11-27T11:26:19.022Z,1002.0
2017-11-27T11:27:20.632Z,1001.9
2017-11-27T11:28:22.236Z,1001.7
2017-11-27T11:29:23.850Z,1001.7
2017-11-27T11:30:25.462Z,1001.6
2017-11-27T11:31:27.070Z,1001.6
2017-11-27T11:32:28.680Z,1001.5
2017-11-27T11:33:30.302Z,1001.6
2017-11-27T11:34:31.912Z,1001.7
2017-11-27T11:35:33.514Z,1001.8
2017-11-27T11:36:35.124Z,1001.6
2017-11-27T11:37:36.739Z,1001.5
2017-11-27T11:38:38.348Z,1001.6
2017-11-27T11:39:39.963Z,1001.6
2017-11-27T11:40:41.569Z,1001.2
2017-11-27T11:41:43.180Z,1001.3
2017-11-27T11:42:44.788Z,1001.4
2017-11-27T11:43:46.401Z,1001.4
2017-11-27T11:44:48.016Z,1001.2
2017-11-27T11:45:49.629Z,1001.2
2017-11-27T11:46:51.258Z,1001.2
2017-11-27T11:47:52.868Z,1001.2
2017-11-27T11:48:54.479Z,1001.4
2017-11-27T11:49:56.089Z,1001.4
2017-11-27T11:50:57.698Z,1001.5
2017-11-27T11:51:59.307Z,1001.4
2017-11-27T11:53:00.924Z,1001.4
2017-11-27T11:54:02.526Z,1001.3
2017-11-27T11:55:04.144Z,1001.3
2017-11-27T11:56:05.757Z,1001.0
2017-11-27T11:57:07.366Z,1000.9
2017-11-27T11:58:08.974Z,1000.8
2017-11-27T11:59:10.582Z,1000.7
2017-11-27T12:00:12.188Z,1001.1
2017-11-27T12:01:13.794Z,1000.9
2017-11-27T12:02:15.407Z,1001.2
2017-11-27T12:03:17.025Z,1001.2
2017-11-27T12:04:18.631Z,1001.2
2017-11-27T12:05:20.246Z,1001.1
2017-11-27T12:06:21.860Z,1001.2
2017-11-27T12:07:23.466Z,1001.1
2017-11-27T12:08:25.073Z,1001.0
2017-11-27T12:09:26.686Z,1001.1
2017-11-27T12:10:28.293Z,1001.2
2017-11-27T12:11:29.915Z,1001.0
2017-11-27T12:12:31.508Z,1000.9
2017-11-27T12:13:33.153Z,1000.9
2017-11-27T12:14:34.730Z,1000.9
2017-11-27T12:15:36.337Z,1000.9
2017-11-27T12:16:37.957Z,1001.0
2017-11-27T12:17:39.560Z,1000.8
2017-11-27T12:18:41.166Z,1000.9
2017-11-27T12:19:42.771Z,1000.8
2017-11-27T12:20:44.386Z,1000.7
2017-11-27T12:21:45.990Z,1000.7
2017-11-27T12:22:47.603Z,1000.6
2017-11-27T12:23:49.214Z,1000.7
2017-11-27T12:24:50.824Z,1000.8
2017-11-27T12:25:52.454Z,1000.9
2017-11-27T12:26:54.071Z,1000.7
2017-11-27T12:27:55.678Z,1000.6
2017-11-27T12:28:57.288Z,1000.6
2017-11-27T12:29:58.895Z,1000.7
2017-11-27T12:31:00.517Z,1000.6
2017-11-27T12:32:02.118Z,1000.4
2017-11-27T12:33:03.733Z,1000.4
2017-11-27T12:34:05.339Z,1000.5
2017-11-27T12:35:06.948Z,1000.4
2017-11-27T12:36:08.557Z,1000.3
2017-11-27T12:37:10.161Z,1000.3
2017-11-27T12:38:11.777Z,1000.3
2017-11-27T12:39:13.389Z,1000.4
2017-11-27T12:40:14.998Z,1000.4
2017-11-27T12:41:16.602Z,1000.4
2017-11-27T12:42:18.211Z,1000.4
2017-11-27T12:43:19.826Z,1000.4
2017-11-27T12:44:21.439Z,1000.5
2017-11-27T12:45:23.051Z,1000.4
2017-11-27T12:46:24.658Z,1000.4
2017-11-27T12:47:26.273Z,1000.4
2017-11-27T12:48:27.885Z,1000.3